Estaciones Metar próximas

 

LELL - Sabadell, Spain
Distancia a la estación: E 18km
Actualizado: 28/10/2021 13:30
Despejado
Despejado
 Viento del varies
Viento: varies 4 km/h
Temperatura: 19°C
Rocío: 10°C
Humedad: 56%
Barómetro: 1018 hPa
Resumen: Despejado
Visibilidad: greater than 10 km
2021/10/28 11:30 LELL 281130Z VRB02KT CAVOK 19/10 Q1018
LEBL - Barcelona Airpor, Spain
Distancia a la estación: SSE 33km
Actualizado: 28/10/2021 13:30
Despejado
Despejado
 Viento del ENE
Viento: ENE 15 km/h
Temperatura: 19°C
Rocío: 12°C
Humedad: 64%
Barómetro: 1018 hPa
Resumen: Despejado
Visibilidad: greater than 10 km
2021/10/28 11:30 LEBL 281130Z 07008KT CAVOK 19/12 Q1018 NOSIG
LERS - Reus (civ/Mil), Spain
Distancia a la estación: SO 75km
Actualizado: 28/10/2021 13:30
Nubes dispersas
Nubes dispersas
 Viento del SE
Viento: SE 11 km/h
Temperatura: 20°C
Rocío: 10°C
Humedad: 53%
Barómetro: 1018 hPa
Nubes: Nubes dispersas
Visibilidad: 10 km
Detalle Nubes: Nubes dispersas 1067 m
2021/10/28 11:30 LERS 281130Z 14006KT 090V190 9999 FEW035 20/10 Q1018
 
LEGE - Gerona/Costa Bra, Spain
Distancia a la estación: ENE 83km
Actualizado: 28/10/2021 13:30
Nubes dispersas
Nubes dispersas
 Viento del ENE
Viento: ENE 6 km/h
Temperatura: 21°C
Rocío: 12°C
Humedad: 57%
Barómetro: 1018 hPa
Nubes: Nubes dispersas
Visibilidad: 10 km
Detalle Nubes: Nubes dispersas 1219 m
2021/10/28 11:30 LEGE 281130Z 06003KT 9999 FEW040 21/12 Q1018
LFMP - Perpignan/Rivesa, France
Distancia a la estación: NNE 155km
Actualizado: 28/10/2021 13:30
Nubes dispersas
Nubes dispersas
 Viento del ESE
Viento: ESE 20 km/h
Temperatura: 21°C
Rocío: 12°C
Humedad: 57%
Barómetro: 1018 hPa
Nubes: Nubes dispersas
Visibilidad: 10 km
Detalle Nubes: Nubes dispersas 792 m
2021/10/28 11:30 LFMP 281130Z AUTO 11011KT 080V150 9999 FEW026 21/12 Q1018 NOSIG
LFMK - Carcassonne/Salv, France
Distancia a la estación: N 191km
Actualizado: 28/10/2021 13:30
Muy nuboso
Muy nuboso
 Viento del E
Viento: E 28 km/h
Temperatura: 18°C
Rocío: 12°C
Humedad: 68%
Barómetro: 1017 hPa
Nubes: Muy nuboso
Visibilidad: 9 km
Detalle Nubes: Nubes dispersas 884 m
Muy nuboso 1036 m
2021/10/28 11:30 LFMK 281130Z AUTO 08015KT 060V120 9000 FEW029 BKN034 18/12 Q1017 TEMPO 08015G25KT
 
LEHC - Huesca-Pirineos, Spain
Distancia a la estación: ONO 193km
Actualizado: 28/10/2021 13:30
Nubes dispersas
Nubes dispersas
 Viento del SE
Viento: SE 19 km/h
Temperatura: 17°C
Rocío: 7°C
Humedad: 52%
Barómetro: 1019 hPa
Nubes: Nubes dispersas
Visibilidad: 10 km
Detalle Nubes: Nubes dispersas 1372 m
2021/10/28 11:30 LEHC 281130Z 13010KT 080V170 9999 FEW045 17/07 Q1019
LFMU - Beziers/Vias, France
Distancia a la estación: NNE 232km
Actualizado: 28/10/2021 13:30
Tormenta
Tormenta
 Viento del E
Viento: E 17 km/h
Temperatura: 17°C
Rocío: 12°C
Humedad: 73%
Barómetro: 1019 hPa
Nubes: Tormenta
Visibilidad: 10 km
Detalle Nubes: Muy nuboso 762 m
Muy nuboso 914 m
Muy nuboso 1433 m
2021/10/28 11:30 LFMU 281130Z AUTO 08009KT 050V110 9999 BKN025/// BKN030/// BKN047/// ///CB 17/12 Q1019 BECMG NSC
LEPA - Palma De Mallorc, Spain
Distancia a la estación: SSE 233km
Actualizado: 28/10/2021 13:33
Tormenta, Few clouds
Tormenta, Few clouds
 Viento del OSO
Viento: OSO 13 km/h
Temperatura: 22°C
Rocío: 14°C
Humedad: 61%
Barómetro: 1017 hPa
Resumen: Tormenta
Nubes: Nubes dispersas
Visibilidad: 10 km
Detalle Nubes: Nubes dispersas 610 m
Nubes dispersas 762 m
2021/10/28 11:33 LEPA 281133Z 24007KT 200V280 9999 TS FEW020 FEW025CB 22/14 Q1017 TEMPO 3000 TSRA
 
LFBO - Toulouse/Blagnac, France
Distancia a la estación: N 236km
Actualizado: 28/10/2021 13:30

 Viento del SE
Viento: SE 31 km/h
Visibilidad: 10 km
2021/10/28 11:30 LFBO 281130Z AUTO 14017KT 9999 4900 NSC 20/11 Q1016 BECMG 12016G27KT
LFBT - Tarbes/Ossun, France
Distancia a la estación: NO 239km
Actualizado: 28/10/2021 13:30
Despejado
Despejado
 Viento del ENE
Viento: ENE 13 km/h
Temperatura: 21°C
Rocío: 6°C
Humedad: 38%
Barómetro: 1015 hPa
Resumen: Despejado
Visibilidad: greater than 10 km
2021/10/28 11:30 LFBT 281130Z AUTO 07007KT 020V130 CAVOK 21/06 Q1015 NOSIG
LEZG - Zaragoza (mil/Ci, Spain
Distancia a la estación: O 242km
Actualizado: 28/10/2021 13:30
Despejado
Despejado
 Viento del E
Viento: E 15 km/h
Temperatura: 17°C
Rocío: 11°C
Humedad: 68%
Barómetro: 1018 hPa
Resumen: Despejado
Visibilidad: greater than 10 km
2021/10/28 11:30 LEZG 281130Z 10008KT 060V160 CAVOK 17/11 Q1018